createdAt,value
2023-02-11T00:22:07.330Z,44.85
2023-02-11T01:22:15.232Z,44.75
2023-02-11T01:52:23.431Z,42.72
2023-02-11T02:22:43.396Z,40.42
2023-02-11T02:52:59.546Z,38.65
2023-02-11T03:23:09.388Z,44.35
2023-02-11T03:53:14.334Z,45.35
2023-02-11T04:23:18.438Z,41.13
2023-02-11T04:53:22.916Z,47.53
2023-02-11T05:23:27.030Z,47.63
2023-02-11T05:53:31.371Z,51.95
2023-02-11T06:23:35.438Z,51.97
2023-02-11T06:53:42.450Z,54.83
2023-02-11T07:23:46.797Z,48.00
2023-02-11T07:53:52.207Z,43.53
2023-02-11T08:23:57.578Z,46.90
2023-02-11T08:54:02.495Z,48.80
2023-02-11T09:24:09.322Z,51.03
2023-02-11T09:54:18.260Z,44.58
2023-02-11T10:24:22.848Z,46.08
2023-02-11T10:54:26.905Z,40.63
2023-02-11T11:24:34.524Z,37.30
2023-02-11T11:54:39.574Z,36.95
2023-02-11T12:24:53.145Z,28.20
2023-02-11T12:55:00.536Z,25.73
2023-02-11T13:25:11.561Z,26.70
2023-02-11T13:55:24.111Z,25.00
2023-02-11T14:25:28.649Z,28.88
2023-02-11T14:55:35.099Z,27.95
2023-02-11T15:25:51.307Z,29.83
2023-02-11T15:56:02.541Z,32.15
2023-02-11T16:26:09.411Z,32.40
2023-02-11T16:56:16.912Z,34.92
2023-02-11T17:26:21.193Z,35.85
2023-02-11T17:56:26.041Z,49.40
2023-02-11T18:26:30.152Z,43.42
2023-02-11T18:56:34.209Z,44.33
2023-02-11T19:26:38.976Z,48.88
2023-02-11T19:56:44.761Z,48.75
2023-02-11T20:26:49.497Z,52.65
2023-02-11T20:56:55.487Z,37.30
2023-02-11T21:27:00.104Z,46.30
2023-02-11T21:57:05.044Z,51.40
2023-02-11T22:27:09.238Z,52.80
2023-02-11T22:57:13.307Z,56.38
2023-02-11T23:27:17.443Z,58.67
2023-02-11T23:57:21.437Z,55.95
